Time;durP1;ratioP1;P1;durP2;ratioP2;P2;SDS_P1;SDS_P2;PMS_P1;PMS_P2;Temp;Humidity;BMP_temperature;BMP_pressure;BME280_temperature;BME280_humidity;BME280_pressure;Samples;Min_cycle;Max_cycle;Signal;HPM_P1;HPM_P2
2024/01/17 00:00:23;;;;;;;;;;;;;;;;;;2095911;28;20399;-75
2024/01/17 00:01:43;;;;;;;;;;;;;;;;;;2094690;28;19908;-76
2024/01/17 00:03:06;;;;;;;;;;;;;;;;;;2104193;28;19909;-77
2024/01/17 00:04:27;;;;;;;;;;;;;;;;;;2096801;28;19967;-76
2024/01/17 00:05:48;;;;;;;;;;;;;;;;;;2103136;28;19916;-76
2024/01/17 00:07:08;;;;;;;;;;;;;;;;;;2097412;28;19920;-76
2024/01/17 00:08:29;;;;;;;;;;;;;;;;;;2104505;28;19927;-77
2024/01/17 00:09:50;;;;;;;;;;;;;;;;;;2105838;28;19909;-77
2024/01/17 00:11:10;;;;;;;;;;;;;;;;;;2096743;28;19912;-76
2024/01/17 00:12:31;;;;;;;;;;;;;;;;;;2104674;28;19908;-77
2024/01/17 00:13:52;;;;;;;;;;;;;;;;;;2105914;28;20429;-76
2024/01/17 00:15:13;;;;;;;;;;;;;;;;;;2096774;28;20276;-77
2024/01/17 00:16:33;;;;;;;;;;;;;;;;;;2104712;28;19908;-77
2024/01/17 00:17:54;;;;;;;;;;;;;;;;;;2095968;28;20025;-77
2024/01/17 00:19:15;;;;;;;;;;;;;;;;;;2094690;28;19909;-76
2024/01/17 00:20:35;;;;;;;;;;;;;;;;;;2097174;28;19912;-77
2024/01/17 00:21:56;;;;;;;;;;;;;;;;;;2089026;28;19920;-77
2024/01/17 00:23:17;;;;;;;;;;;;;;;;;;2086005;28;19917;-77
2024/01/17 00:24:37;;;;;;;;;;;;;;;;;;2095285;28;19942;-76
2024/01/17 00:25:58;;;;;;;;;;;;;;;;;;2101311;28;20335;-78
2024/01/17 00:27:23;;;;;;;;;;;;;;;;;;2105988;28;19935;-77
2024/01/17 00:28:44;;;;;;;;;;;;;;;;;;2106378;28;19986;-75
2024/01/17 00:30:05;;;;;;;;;;;;;;;;;;2105350;28;19915;-76
2024/01/17 00:31:25;;;;;;;;;;;;;;;;;;2106466;28;19915;-77
2024/01/17 00:32:46;;;;;;;;;;;;;;;;;;2105503;28;19927;-77
2024/01/17 00:34:07;;;;;;;;;;;;;;;;;;2106305;28;20248;-77
2024/01/17 00:35:28;;;;;;;;;;;;;;;;;;2105461;28;19916;-76
2024/01/17 00:36:49;;;;;;;;;;;;;;;;;;2106432;28;19915;-77
2024/01/17 00:38:10;;;;;;;;;;;;;;;;;;2106049;28;20363;-76
2024/01/17 00:39:30;;;;;;;;;;;;;;;;;;2107295;28;19909;-76
2024/01/17 00:40:51;;;;;;;;;;;;;;;;;;2106797;28;19912;-77
2024/01/17 00:42:12;;;;;;;;;;;;;;;;;;2100057;28;19927;-77
2024/01/17 00:43:32;;;;;;;;;;;;;;;;;;2094999;28;19919;-77
2024/01/17 00:44:53;;;;;;;;;;;;;;;;;;2103208;28;19908;-76
2024/01/17 00:46:14;;;;;;;;;;;;;;;;;;2098143;28;19920;-77
2024/01/17 00:47:36;;;;;;;;;;;;;;;;;;2091002;28;19913;-76
2024/01/17 00:48:56;;;;;;;;;;;;;;;;;;2086920;28;19913;-76
2024/01/17 00:50:18;;;;;;;;;;;;;;;;;;2094911;28;20412;-77
2024/01/17 00:51:39;;;;;;;;;;;;;;;;;;2094711;28;19916;-76
2024/01/17 00:52:59;;;;;;;;;;;;;;;;;;2104098;28;19931;-76
2024/01/17 00:54:20;;;;;;;;;;;;;;;;;;2089600;28;19912;-77
2024/01/17 00:55:41;;;;;;;;;;;;;;;;;;2094884;28;19996;-77
2024/01/17 00:57:02;;;;;;;;;;;;;;;;;;2098064;28;20363;-77
2024/01/17 00:58:22;;;;;;;;;;;;;;;;;;2088354;28;20027;-76
2024/01/17 00:59:43;;;;;;;;;;;;;;;;;;2095487;28;19915;-76
2024/01/17 01:01:04;;;;;;;;;;;;;;;;;;2097859;28;19908;-76
2024/01/17 01:02:24;;;;;;;;;;;;;;;;;;2098050;28;20225;-76
2024/01/17 01:03:45;;;;;;;;;;;;;;;;;;2088113;28;19909;-76
2024/01/17 01:05:06;;;;;;;;;;;;;;;;;;2085586;28;19958;-76
2024/01/17 01:06:27;;;;;;;;;;;;;;;;;;2095034;28;20112;-77
2024/01/17 01:07:48;;;;;;;;;;;;;;;;;;2098458;28;19954;-76
2024/01/17 01:09:09;;;;;;;;;;;;;;;;;;2092478;28;19929;-76
2024/01/17 01:10:30;;;;;;;;;;;;;;;;;;2097044;28;20368;-76
2024/01/17 01:11:51;;;;;;;;;;;;;;;;;;2095894;28;19912;-76
2024/01/17 01:13:12;;;;;;;;;;;;;;;;;;2102253;28;19912;-77
2024/01/17 01:14:32;;;;;;;;;;;;;;;;;;2090101;28;19913;-77
2024/01/17 01:15:53;;;;;;;;;;;;;;;;;;2095604;28;20311;-76
2024/01/17 01:17:14;;;;;;;;;;;;;;;;;;2098045;28;19912;-76
2024/01/17 01:18:35;;;;;;;;;;;;;;;;;;2099100;28;19912;-76
2024/01/17 01:19:56;;;;;;;;;;;;;;;;;;2101609;28;20065;-76
2024/01/17 01:21:17;;;;;;;;;;;;;;;;;;2100255;28;19928;-78
2024/01/17 01:22:38;;;;;;;;;;;;;;;;;;2092707;28;19912;-78
2024/01/17 01:23:58;;;;;;;;;;;;;;;;;;2090576;28;19920;-77
2024/01/17 01:25:19;;;;;;;;;;;;;;;;;;2101041;28;20347;-78
2024/01/17 01:26:40;;;;;;;;;;;;;;;;;;2097821;28;19913;-77
2024/01/17 01:28:00;;;;;;;;;;;;;;;;;;2097274;28;20297;-77
2024/01/17 01:29:21;;;;;;;;;;;;;;;;;;2097750;28;19981;-78
2024/01/17 01:30:42;;;;;;;;;;;;;;;;;;2092168;28;19917;-77
2024/01/17 01:32:02;;;;;;;;;;;;;;;;;;2089566;28;19908;-78
2024/01/17 01:33:24;;;;;;;;;;;;;;;;;;2094728;28;19912;-77
2024/01/17 01:34:44;;;;;;;;;;;;;;;;;;2094167;28;19913;-78
2024/01/17 01:36:05;;;;;;;;;;;;;;;;;;2091856;28;20411;-77
2024/01/17 01:37:26;;;;;;;;;;;;;;;;;;2097048;28;19913;-77
2024/01/17 01:38:46;;;;;;;;;;;;;;;;;;2091504;28;19917;-77
2024/01/17 01:40:07;;;;;;;;;;;;;;;;;;2086924;28;20377;-77
2024/01/17 01:41:28;;;;;;;;;;;;;;;;;;2088384;28;19932;-76
2024/01/17 01:42:48;;;;;;;;;;;;;;;;;;2091867;28;19921;-78
2024/01/17 01:44:09;;;;;;;;;;;;;;;;;;2099225;28;20280;-77
2024/01/17 01:45:30;;;;;;;;;;;;;;;;;;2100987;28;19920;-77
2024/01/17 01:46:51;;;;;;;;;;;;;;;;;;2103148;28;20291;-77
2024/01/17 01:48:12;;;;;;;;;;;;;;;;;;2089995;28;19928;-77
2024/01/17 01:49:33;;;;;;;;;;;;;;;;;;2089659;28;19912;-77
2024/01/17 01:50:54;;;;;;;;;;;;;;;;;;2087512;28;20347;-77
2024/01/17 01:52:17;;;;;;;;;;;;;;;;;;2097438;28;19920;-77
2024/01/17 01:53:38;;;;;;;;;;;;;;;;;;2093581;28;19991;-77
2024/01/17 01:54:59;;;;;;;;;;;;;;;;;;2098616;28;19913;-77
2024/01/17 01:56:19;;;;;;;;;;;;;;;;;;2090554;28;19921;-78
2024/01/17 01:57:40;;;;;;;;;;;;;;;;;;2100516;28;19949;-77
2024/01/17 01:59:01;;;;;;;;;;;;;;;;;;2092134;28;19971;-77
2024/01/17 02:00:22;;;;;;;;;;;;;;;;;;2097908;28;20261;-77
2024/01/17 02:01:43;;;;;;;;;;;;;;;;;;2102258;28;20429;-77
2024/01/17 02:03:03;;;;;;;;;;;;;;;;;;2104513;28;19908;-77
2024/01/17 02:04:24;;;;;;;;;;;;;;;;;;2096941;28;19916;-78
2024/01/17 02:05:45;;;;;;;;;;;;;;;;;;2087287;28;19995;-77
2024/01/17 02:07:06;;;;;;;;;;;;;;;;;;2091107;28;19913;-77
2024/01/17 02:08:26;;;;;;;;;;;;;;;;;;2095467;28;20376;-75
2024/01/17 02:09:47;;;;;;;;;;;;;;;;;;2101674;28;19923;-75
2024/01/17 02:11:08;;;;;;;;;;;;;;;;;;2098516;28;19909;-75
2024/01/17 02:12:28;;;;;;;;;;;;;;;;;;2097607;28;19912;-75
2024/01/17 02:13:50;;;;;;;;;;;;;;;;;;2103447;28;20013;-74
2024/01/17 02:15:11;;;;;;;;;;;;;;;;;;2101391;28;21067;-75
2024/01/17 02:16:33;;;;;;;;;;;;;;;;;;2101947;28;19931;-75
2024/01/17 02:17:54;;;;;;;;;;;;;;;;;;2100160;28;19923;-75
2024/01/17 02:19:15;;;;;;;;;;;;;;;;;;2100825;28;20360;-74
2024/01/17 02:20:35;;;;;;;;;;;;;;;;;;2103473;28;19916;-75
2024/01/17 02:21:56;;;;;;;;;;;;;;;;;;2090658;28;19908;-75
2024/01/17 02:23:17;;;;;;;;;;;;;;;;;;2098215;28;19923;-74
2024/01/17 02:24:37;;;;;;;;;;;;;;;;;;2099519;28;19950;-75
2024/01/17 02:25:58;;;;;;;;;;;;;;;;;;2101498;28;19919;-77
2024/01/17 02:27:19;;;;;;;;;;;;;;;;;;2090605;28;20380;-77
2024/01/17 02:28:39;;;;;;;;;;;;;;;;;;2098044;28;20257;-77
2024/01/17 02:30:00;;;;;;;;;;;;;;;;;;2092290;28;19920;-78
2024/01/17 02:31:21;;;;;;;;;;;;;;;;;;2092875;28;20288;-77
2024/01/17 02:32:41;;;;;;;;;;;;;;;;;;2092207;28;19921;-78
2024/01/17 02:34:02;;;;;;;;;;;;;;;;;;2093313;28;20368;-77
2024/01/17 02:35:23;;;;;;;;;;;;;;;;;;2102798;28;20407;-77
2024/01/17 02:36:44;;;;;;;;;;;;;;;;;;2090261;28;19920;-77
2024/01/17 02:38:04;;;;;;;;;;;;;;;;;;2085740;28;19913;-75
2024/01/17 02:39:25;;;;;;;;;;;;;;;;;;2090853;28;19982;-75
2024/01/17 02:40:46;;;;;;;;;;;;;;;;;;2095117;28;19962;-75
2024/01/17 02:42:06;;;;;;;;;;;;;;;;;;2092473;28;19932;-75
2024/01/17 02:43:27;;;;;;;;;;;;;;;;;;2094701;28;19924;-75
2024/01/17 02:44:50;;;;;;;;;;;;;;;;;;2094027;28;19912;-75
2024/01/17 02:46:11;;;;;;;;;;;;;;;;;;2090165;28;20420;-75
2024/01/17 02:47:32;;;;;;;;;;;;;;;;;;2097669;28;20112;-75
2024/01/17 02:48:53;;;;;;;;;;;;;;;;;;2090828;28;19920;-74
2024/01/17 02:50:15;;;;;;;;;;;;;;;;;;2095676;28;19912;-75
2024/01/17 02:51:35;;;;;;;;;;;;;;;;;;2104895;28;19992;-75
2024/01/17 02:52:56;;;;;;;;;;;;;;;;;;2100598;28;19924;-76
2024/01/17 02:54:17;;;;;;;;;;;;;;;;;;2091419;28;20404;-76
2024/01/17 02:55:37;;;;;;;;;;;;;;;;;;2087706;28;19991;-75
2024/01/17 02:56:58;;;;;;;;;;;;;;;;;;2098683;28;19916;-75
2024/01/17 02:58:19;;;;;;;;;;;;;;;;;;2091191;28;19940;-75
2024/01/17 02:59:41;;;;;;;;;;;;;;;;;;2100858;28;19912;-76
2024/01/17 03:01:03;;;;;;;;;;;;;;;;;;2096620;28;19923;-75
2024/01/17 03:02:24;;;;;;;;;;;;;;;;;;2089174;28;20280;-75
2024/01/17 03:03:45;;;;;;;;;;;;;;;;;;2086907;28;19920;-76
2024/01/17 03:05:05;;;;;;;;;;;;;;;;;;2100197;28;19935;-75
2024/01/17 03:06:26;;;;;;;;;;;;;;;;;;2100463;28;19920;-74
2024/01/17 03:07:47;;;;;;;;;;;;;;;;;;2102068;28;19915;-75
2024/01/17 03:09:08;;;;;;;;;;;;;;;;;;2099029;28;19970;-75
2024/01/17 03:10:28;;;;;;;;;;;;;;;;;;2091441;28;20360;-75
2024/01/17 03:11:49;;;;;;;;;;;;;;;;;;2099351;28;19916;-75
2024/01/17 03:13:12;;;;;;;;;;;;;;;;;;2089696;28;20346;-75
2024/01/17 03:14:33;;;;;;;;;;;;;;;;;;2100963;28;19912;-75
2024/01/17 03:15:53;;;;;;;;;;;;;;;;;;2091703;28;19921;-75
2024/01/17 03:17:14;;;;;;;;;;;;;;;;;;2084729;28;19952;-75
2024/01/17 03:18:35;;;;;;;;;;;;;;;;;;2092137;28;20283;-76
2024/01/17 03:19:55;;;;;;;;;;;;;;;;;;2090449;28;19921;-75
2024/01/17 03:21:16;;;;;;;;;;;;;;;;;;2100174;28;20495;-75
2024/01/17 03:22:37;;;;;;;;;;;;;;;;;;2100548;28;20299;-76
2024/01/17 03:23:59;;;;;;;;;;;;;;;;;;2098052;28;20101;-76
2024/01/17 03:25:20;;;;;;;;;;;;;;;;;;2091695;28;19947;-75
2024/01/17 03:26:41;;;;;;;;;;;;;;;;;;2096951;28;19920;-76
2024/01/17 03:28:01;;;;;;;;;;;;;;;;;;2100169;28;19916;-76
2024/01/17 03:29:22;;;;;;;;;;;;;;;;;;2097307;28;19919;-75
2024/01/17 03:30:43;;;;;;;;;;;;;;;;;;2099653;28;19912;-75
2024/01/17 03:32:03;;;;;;;;;;;;;;;;;;2099514;28;20019;-76
2024/01/17 03:33:24;;;;;;;;;;;;;;;;;;2094726;28;20350;-75
2024/01/17 03:34:45;;;;;;;;;;;;;;;;;;2085103;28;19913;-75
2024/01/17 03:36:05;;;;;;;;;;;;;;;;;;2099809;28;19932;-75
2024/01/17 03:37:26;;;;;;;;;;;;;;;;;;2089269;28;19956;-75
2024/01/17 03:38:47;;;;;;;;;;;;;;;;;;2091607;28;20296;-75
2024/01/17 03:40:07;;;;;;;;;;;;;;;;;;2093702;28;19942;-75
2024/01/17 03:41:28;;;;;;;;;;;;;;;;;;2097786;28;19913;-75
2024/01/17 03:42:49;;;;;;;;;;;;;;;;;;2105276;28;20379;-75
2024/01/17 03:44:09;;;;;;;;;;;;;;;;;;2096205;28;19908;-76
2024/01/17 03:45:30;;;;;;;;;;;;;;;;;;2092698;28;19909;-75
2024/01/17 03:46:51;;;;;;;;;;;;;;;;;;2089105;28;19921;-76
2024/01/17 03:48:12;;;;;;;;;;;;;;;;;;2095684;28;19912;-75
2024/01/17 03:49:32;;;;;;;;;;;;;;;;;;2090501;28;20404;-75
2024/01/17 03:50:53;;;;;;;;;;;;;;;;;;2097905;28;19939;-75
2024/01/17 03:52:14;;;;;;;;;;;;;;;;;;2099994;28;19919;-75
2024/01/17 03:53:34;;;;;;;;;;;;;;;;;;2098332;28;19916;-75
2024/01/17 03:54:55;;;;;;;;;;;;;;;;;;2090250;28;20313;-75
2024/01/17 03:56:16;;;;;;;;;;;;;;;;;;2097842;28;20273;-75
2024/01/17 03:57:36;;;;;;;;;;;;;;;;;;2096551;28;20003;-75
2024/01/17 03:58:57;;;;;;;;;;;;;;;;;;2088610;28;19917;-76
2024/01/17 04:00:18;;;;;;;;;;;;;;;;;;2097119;28;19938;-75
2024/01/17 04:01:38;;;;;;;;;;;;;;;;;;2092004;28;19969;-75
2024/01/17 04:02:59;;;;;;;;;;;;;;;;;;2091400;28;19920;-75
2024/01/17 04:04:20;;;;;;;;;;;;;;;;;;2097826;28;19920;-75
2024/01/17 04:05:40;;;;;;;;;;;;;;;;;;2097568;28;19916;-75
2024/01/17 04:07:01;;;;;;;;;;;;;;;;;;2095314;28;19916;-77
2024/01/17 04:08:22;;;;;;;;;;;;;;;;;;2093883;28;19920;-75
2024/01/17 04:09:45;;;;;;;;;;;;;;;;;;2096213;28;19938;-75
2024/01/17 04:11:06;;;;;;;;;;;;;;;;;;2093070;28;19978;-74
2024/01/17 04:12:27;;;;;;;;;;;;;;;;;;2098979;28;19908;-76
2024/01/17 04:13:47;;;;;;;;;;;;;;;;;;2095932;28;19920;-75
2024/01/17 04:15:08;;;;;;;;;;;;;;;;;;2089401;28;19913;-75
2024/01/17 04:16:29;;;;;;;;;;;;;;;;;;2086380;28;20442;-75
2024/01/17 04:17:50;;;;;;;;;;;;;;;;;;2090890;28;20300;-76
2024/01/17 04:19:10;;;;;;;;;;;;;;;;;;2098763;28;19916;-76
2024/01/17 04:20:32;;;;;;;;;;;;;;;;;;2097606;28;20396;-75
2024/01/17 04:21:56;;;;;;;;;;;;;;;;;;2092135;28;19909;-75
2024/01/17 04:23:18;;;;;;;;;;;;;;;;;;2096346;28;19921;-75
2024/01/17 04:24:39;;;;;;;;;;;;;;;;;;2097841;28;19908;-75
2024/01/17 04:25:59;;;;;;;;;;;;;;;;;;2093755;28;20266;-75
2024/01/17 04:27:20;;;;;;;;;;;;;;;;;;2090309;28;19917;-75
2024/01/17 04:28:41;;;;;;;;;;;;;;;;;;2097906;28;20292;-75
2024/01/17 04:30:01;;;;;;;;;;;;;;;;;;2096851;28;19951;-75
2024/01/17 04:31:23;;;;;;;;;;;;;;;;;;2095081;28;19916;-75
2024/01/17 04:32:44;;;;;;;;;;;;;;;;;;2094616;28;19932;-74
2024/01/17 04:34:04;;;;;;;;;;;;;;;;;;2097685;28;19915;-77
2024/01/17 04:35:25;;;;;;;;;;;;;;;;;;2096379;28;19979;-77
2024/01/17 04:36:46;;;;;;;;;;;;;;;;;;2097145;28;20333;-76
2024/01/17 04:38:07;;;;;;;;;;;;;;;;;;2097059;28;19912;-77
2024/01/17 04:39:27;;;;;;;;;;;;;;;;;;2090451;28;19916;-76
2024/01/17 04:40:48;;;;;;;;;;;;;;;;;;2089715;28;19917;-77
2024/01/17 04:42:09;;;;;;;;;;;;;;;;;;2093489;28;19912;-77
2024/01/17 04:43:29;;;;;;;;;;;;;;;;;;2096880;28;19951;-77
2024/01/17 04:44:50;;;;;;;;;;;;;;;;;;2097603;28;19909;-77
2024/01/17 04:46:12;;;;;;;;;;;;;;;;;;2097727;28;19919;-78
2024/01/17 04:47:33;;;;;;;;;;;;;;;;;;2096690;28;19923;-77
2024/01/17 04:48:53;;;;;;;;;;;;;;;;;;2091824;28;19974;-76
2024/01/17 04:50:14;;;;;;;;;;;;;;;;;;2095776;28;20588;-77
2024/01/17 04:51:35;;;;;;;;;;;;;;;;;;2089780;28;19966;-77
2024/01/17 04:52:55;;;;;;;;;;;;;;;;;;2089241;28;19916;-77
2024/01/17 04:54:16;;;;;;;;;;;;;;;;;;2089340;28;20285;-77
2024/01/17 04:55:39;;;;;;;;;;;;;;;;;;2088711;28;19913;-77
2024/01/17 04:57:00;;;;;;;;;;;;;;;;;;2086661;28;19916;-77
2024/01/17 04:58:21;;;;;;;;;;;;;;;;;;2089074;28;20292;-75
2024/01/17 04:59:42;;;;;;;;;;;;;;;;;;2096479;28;19908;-74
2024/01/17 05:01:03;;;;;;;;;;;;;;;;;;2098091;28;19912;-75
2024/01/17 05:02:23;;;;;;;;;;;;;;;;;;2097882;28;19909;-75
2024/01/17 05:03:44;;;;;;;;;;;;;;;;;;2097305;28;19908;-74
2024/01/17 05:05:05;;;;;;;;;;;;;;;;;;2096084;28;19908;-75
2024/01/17 05:06:26;;;;;;;;;;;;;;;;;;2096788;28;19908;-75
2024/01/17 05:07:47;;;;;;;;;;;;;;;;;;2088545;28;20239;-75
2024/01/17 05:09:08;;;;;;;;;;;;;;;;;;2086402;28;19925;-76
2024/01/17 05:10:30;;;;;;;;;;;;;;;;;;2086668;28;19920;-76
2024/01/17 05:11:50;;;;;;;;;;;;;;;;;;2090427;28;20004;-77
2024/01/17 05:13:11;;;;;;;;;;;;;;;;;;2088396;28;19916;-76
2024/01/17 05:14:32;;;;;;;;;;;;;;;;;;2089610;28;19932;-77
2024/01/17 05:15:53;;;;;;;;;;;;;;;;;;2089506;28;19932;-76
2024/01/17 05:17:15;;;;;;;;;;;;;;;;;;2086969;28;19979;-76
2024/01/17 05:18:36;;;;;;;;;;;;;;;;;;2097272;28;19908;-76
2024/01/17 05:19:57;;;;;;;;;;;;;;;;;;2096423;28;19913;-76
2024/01/17 05:21:17;;;;;;;;;;;;;;;;;;2097098;28;20269;-77
2024/01/17 05:22:39;;;;;;;;;;;;;;;;;;2097331;28;19912;-76
2024/01/17 05:24:00;;;;;;;;;;;;;;;;;;2096476;28;19915;-77
2024/01/17 05:25:21;;;;;;;;;;;;;;;;;;2096307;28;20303;-76
2024/01/17 05:26:41;;;;;;;;;;;;;;;;;;2088281;28;19967;-76
2024/01/17 05:28:02;;;;;;;;;;;;;;;;;;2087487;28;19916;-76
2024/01/17 05:29:23;;;;;;;;;;;;;;;;;;2089078;28;19931;-77
2024/01/17 05:30:43;;;;;;;;;;;;;;;;;;2087859;28;19915;-76
2024/01/17 05:32:05;;;;;;;;;;;;;;;;;;2085719;28;19909;-76
2024/01/17 05:33:26;;;;;;;;;;;;;;;;;;2086260;28;19916;-77
2024/01/17 05:34:48;;;;;;;;;;;;;;;;;;2088633;28;19909;-76
2024/01/17 05:36:09;;;;;;;;;;;;;;;;;;2097704;28;19977;-76
2024/01/17 05:37:30;;;;;;;;;;;;;;;;;;2096626;28;19917;-76
2024/01/17 05:38:51;;;;;;;;;;;;;;;;;;2096744;28;20364;-76
2024/01/17 05:40:12;;;;;;;;;;;;;;;;;;2096788;28;19923;-76
2024/01/17 05:41:33;;;;;;;;;;;;;;;;;;2088125;28;20369;-76
2024/01/17 05:42:53;;;;;;;;;;;;;;;;;;2088284;28;19916;-76
2024/01/17 05:44:14;;;;;;;;;;;;;;;;;;2088249;28;19916;-76
2024/01/17 05:45:35;;;;;;;;;;;;;;;;;;2088895;28;19929;-76
2024/01/17 05:46:56;;;;;;;;;;;;;;;;;;2087568;28;19913;-76
2024/01/17 05:48:17;;;;;;;;;;;;;;;;;;2097043;28;19955;-76
2024/01/17 05:49:38;;;;;;;;;;;;;;;;;;2088660;28;19916;-77
2024/01/17 05:50:59;;;;;;;;;;;;;;;;;;2089079;28;19909;-77
2024/01/17 05:52:19;;;;;;;;;;;;;;;;;;2088944;28;20369;-76
2024/01/17 05:53:41;;;;;;;;;;;;;;;;;;2096644;28;19963;-77
2024/01/17 05:55:01;;;;;;;;;;;;;;;;;;2096272;28;19908;-77
2024/01/17 05:56:22;;;;;;;;;;;;;;;;;;2096262;28;19908;-76
2024/01/17 05:57:43;;;;;;;;;;;;;;;;;;2096063;28;20050;-76
2024/01/17 05:59:03;;;;;;;;;;;;;;;;;;2097395;28;19912;-77
2024/01/17 06:00:24;;;;;;;;;;;;;;;;;;2095971;28;19908;-76
2024/01/17 06:01:45;;;;;;;;;;;;;;;;;;2095268;28;19916;-76
2024/01/17 06:03:05;;;;;;;;;;;;;;;;;;2089229;28;20410;-76
2024/01/17 06:04:26;;;;;;;;;;;;;;;;;;2092080;28;20280;-76
2024/01/17 06:05:47;;;;;;;;;;;;;;;;;;2095955;28;20327;-76
2024/01/17 06:07:07;;;;;;;;;;;;;;;;;;2093663;28;19912;-76
2024/01/17 06:08:28;;;;;;;;;;;;;;;;;;2088444;28;19951;-75
2024/01/17 06:09:49;;;;;;;;;;;;;;;;;;2088897;28;19924;-78
2024/01/17 06:11:09;;;;;;;;;;;;;;;;;;2088850;28;19913;-76
2024/01/17 06:12:31;;;;;;;;;;;;;;;;;;2088870;28;19913;-76
2024/01/17 06:13:53;;;;;;;;;;;;;;;;;;2090857;28;19913;-76
2024/01/17 06:15:17;;;;;;;;;;;;;;;;;;2096428;28;19916;-76
2024/01/17 06:16:38;;;;;;;;;;;;;;;;;;2096566;28;19912;-76
2024/01/17 06:18:00;;;;;;;;;;;;;;;;;;2095967;28;19996;-77
2024/01/17 06:19:20;;;;;;;;;;;;;;;;;;2096974;28;20280;-77
2024/01/17 06:20:41;;;;;;;;;;;;;;;;;;2088768;28;19908;-75
2024/01/17 06:22:02;;;;;;;;;;;;;;;;;;2088774;28;20034;-75
2024/01/17 06:23:22;;;;;;;;;;;;;;;;;;2088477;28;20015;-75
2024/01/17 06:24:43;;;;;;;;;;;;;;;;;;2088340;28;19916;-75
2024/01/17 06:26:04;;;;;;;;;;;;;;;;;;2088526;28;20331;-75
2024/01/17 06:27:25;;;;;;;;;;;;;;;;;;2090735;28;19924;-74
2024/01/17 06:28:45;;;;;;;;;;;;;;;;;;2090325;28;20384;-75
2024/01/17 06:30:06;;;;;;;;;;;;;;;;;;2095232;28;19913;-76
2024/01/17 06:31:27;;;;;;;;;;;;;;;;;;2095908;28;19913;-75
2024/01/17 06:32:47;;;;;;;;;;;;;;;;;;2095835;28;20019;-76
2024/01/17 06:34:08;;;;;;;;;;;;;;;;;;2093044;28;19917;-76
2024/01/17 06:35:29;;;;;;;;;;;;;;;;;;2092499;28;19912;-76
2024/01/17 06:36:49;;;;;;;;;;;;;;;;;;2093273;28;20358;-75
2024/01/17 06:38:10;;;;;;;;;;;;;;;;;;2089704;28;19924;-76
2024/01/17 06:39:31;;;;;;;;;;;;;;;;;;2091754;28;20225;-78
2024/01/17 06:40:52;;;;;;;;;;;;;;;;;;2093883;28;20388;-77
2024/01/17 06:42:12;;;;;;;;;;;;;;;;;;2089478;28;19920;-77
2024/01/17 06:43:33;;;;;;;;;;;;;;;;;;2092509;28;19924;-76
2024/01/17 06:44:54;;;;;;;;;;;;;;;;;;2093165;28;20360;-77
2024/01/17 06:46:15;;;;;;;;;;;;;;;;;;2090679;28;19912;-78
2024/01/17 06:47:35;;;;;;;;;;;;;;;;;;2091116;28;19927;-77
2024/01/17 06:48:56;;;;;;;;;;;;;;;;;;2091518;28;20311;-77
2024/01/17 06:50:18;;;;;;;;;;;;;;;;;;2092548;28;19912;-77
2024/01/17 06:51:39;;;;;;;;;;;;;;;;;;2089036;28;19916;-77
2024/01/17 06:53:00;;;;;;;;;;;;;;;;;;2094046;28;19913;-76
2024/01/17 06:54:21;;;;;;;;;;;;;;;;;;2093484;28;19917;-76
2024/01/17 06:55:41;;;;;;;;;;;;;;;;;;2094823;28;19921;-77
2024/01/17 06:57:02;;;;;;;;;;;;;;;;;;2088235;28;19913;-75
2024/01/17 06:58:23;;;;;;;;;;;;;;;;;;2088394;28;20280;-75
2024/01/17 06:59:43;;;;;;;;;;;;;;;;;;2088224;28;19920;-75
2024/01/17 07:01:04;;;;;;;;;;;;;;;;;;2088582;28;19909;-78
2024/01/17 07:02:25;;;;;;;;;;;;;;;;;;2088319;28;19915;-76
2024/01/17 07:03:45;;;;;;;;;;;;;;;;;;2087600;28;19909;-76
2024/01/17 07:05:06;;;;;;;;;;;;;;;;;;2088578;28;20364;-75
2024/01/17 07:06:27;;;;;;;;;;;;;;;;;;2091167;28;19970;-75
2024/01/17 07:07:47;;;;;;;;;;;;;;;;;;2095614;28;19916;-76
2024/01/17 07:09:10;;;;;;;;;;;;;;;;;;2094816;28;19931;-75
2024/01/17 07:10:31;;;;;;;;;;;;;;;;;;2096456;28;19912;-80
2024/01/17 07:11:52;;;;;;;;;;;;;;;;;;2095444;28;19909;-79
2024/01/17 07:13:12;;;;;;;;;;;;;;;;;;2096576;28;19913;-80
2024/01/17 07:14:33;;;;;;;;;;;;;;;;;;2093845;28;20125;-80
2024/01/17 07:15:54;;;;;;;;;;;;;;;;;;2094629;28;19908;-80
2024/01/17 07:17:14;;;;;;;;;;;;;;;;;;2094822;28;19917;-80
2024/01/17 07:18:35;;;;;;;;;;;;;;;;;;2093970;28;20113;-81
2024/01/17 07:19:56;;;;;;;;;;;;;;;;;;2094071;28;19916;-80
2024/01/17 07:21:16;;;;;;;;;;;;;;;;;;2094717;28;19916;-80
2024/01/17 07:22:41;;;;;;;;;;;;;;;;;;2094274;28;19958;-79
2024/01/17 07:24:02;;;;;;;;;;;;;;;;;;2095413;28;19908;-80
2024/01/17 07:25:23;;;;;;;;;;;;;;;;;;2094827;28;19920;-80
2024/01/17 07:26:44;;;;;;;;;;;;;;;;;;2094533;28;19908;-80
2024/01/17 07:28:04;;;;;;;;;;;;;;;;;;2091899;28;19951;-80
2024/01/17 07:29:25;;;;;;;;;;;;;;;;;;2092710;28;19912;-79
2024/01/17 07:30:46;;;;;;;;;;;;;;;;;;2096445;28;20330;-79
2024/01/17 07:32:06;;;;;;;;;;;;;;;;;;2093120;28;19916;-80
2024/01/17 07:33:27;;;;;;;;;;;;;;;;;;2090913;28;19908;-80
2024/01/17 07:34:48;;;;;;;;;;;;;;;;;;2091204;28;19913;-80
2024/01/17 07:36:09;;;;;;;;;;;;;;;;;;2091704;28;19982;-80
2024/01/17 07:37:31;;;;;;;;;;;;;;;;;;2095320;28;19927;-79
2024/01/17 07:38:51;;;;;;;;;;;;;;;;;;2092638;28;19909;-80
2024/01/17 07:40:14;;;;;;;;;;;;;;;;;;2090087;28;19908;-79
2024/01/17 07:41:35;;;;;;;;;;;;;;;;;;2087590;28;19913;-80
2024/01/17 07:42:55;;;;;;;;;;;;;;;;;;2095725;28;20246;-80
2024/01/17 07:44:16;;;;;;;;;;;;;;;;;;2095965;28;20346;-80
2024/01/17 07:45:37;;;;;;;;;;;;;;;;;;2095622;28;19910;-80
2024/01/17 07:46:57;;;;;;;;;;;;;;;;;;2095377;28;19908;-79
2024/01/17 07:48:19;;;;;;;;;;;;;;;;;;2095991;28;19924;-79
2024/01/17 07:49:40;;;;;;;;;;;;;;;;;;2096068;28;20304;-79
2024/01/17 07:51:02;;;;;;;;;;;;;;;;;;2090888;28;19912;-79
2024/01/17 07:52:23;;;;;;;;;;;;;;;;;;2089216;28;20361;-81
2024/01/17 07:53:44;;;;;;;;;;;;;;;;;;2092501;28;20516;-80
2024/01/17 07:55:05;;;;;;;;;;;;;;;;;;2089009;28;19909;-80
2024/01/17 07:56:25;;;;;;;;;;;;;;;;;;2092397;28;19913;-80
2024/01/17 07:57:46;;;;;;;;;;;;;;;;;;2093956;28;20388;-80
2024/01/17 07:59:07;;;;;;;;;;;;;;;;;;2097326;28;19909;-80
2024/01/17 08:00:28;;;;;;;;;;;;;;;;;;2098166;28;19936;-80
2024/01/17 08:01:49;;;;;;;;;;;;;;;;;;2094674;28;19916;-80
2024/01/17 08:03:10;;;;;;;;;;;;;;;;;;2089074;28;19919;-80
2024/01/17 08:04:31;;;;;;;;;;;;;;;;;;2086042;28;20283;-79
2024/01/17 08:05:52;;;;;;;;;;;;;;;;;;2092827;28;19920;-80
2024/01/17 08:07:12;;;;;;;;;;;;;;;;;;2093613;28;19912;-80
2024/01/17 08:08:33;;;;;;;;;;;;;;;;;;2101294;28;19912;-80
2024/01/17 08:09:54;;;;;;;;;;;;;;;;;;2097655;28;20265;-80
2024/01/17 08:11:14;;;;;;;;;;;;;;;;;;2105595;28;19908;-80
2024/01/17 08:12:35;;;;;;;;;;;;;;;;;;2097275;28;19916;-80
2024/01/17 08:13:56;;;;;;;;;;;;;;;;;;2094484;28;19916;-81
2024/01/17 08:15:16;;;;;;;;;;;;;;;;;;2090477;28;20238;-80
2024/01/17 08:16:37;;;;;;;;;;;;;;;;;;2087325;28;19939;-82
2024/01/17 08:17:58;;;;;;;;;;;;;;;;;;2087132;28;19916;-80
2024/01/17 08:19:18;;;;;;;;;;;;;;;;;;2095765;28;20392;-80
2024/01/17 08:20:39;;;;;;;;;;;;;;;;;;2093183;28;19913;-80
2024/01/17 08:22:00;;;;;;;;;;;;;;;;;;2094779;28;19913;-80
2024/01/17 08:23:20;;;;;;;;;;;;;;;;;;2095259;28;20371;-80
2024/01/17 08:24:41;;;;;;;;;;;;;;;;;;2093152;28;19908;-80
2024/01/17 08:26:03;;;;;;;;;;;;;;;;;;2095490;28;19908;-81
2024/01/17 08:27:24;;;;;;;;;;;;;;;;;;2102894;28;19912;-80
2024/01/17 08:28:44;;;;;;;;;;;;;;;;;;2106055;28;19908;-80
2024/01/17 08:30:05;;;;;;;;;;;;;;;;;;2105299;28;20303;-82
2024/01/17 08:31:26;;;;;;;;;;;;;;;;;;2098210;28;20261;-81
2024/01/17 08:32:46;;;;;;;;;;;;;;;;;;2098196;28;19964;-81
2024/01/17 08:34:07;;;;;;;;;;;;;;;;;;2096142;28;19919;-81
2024/01/17 08:35:28;;;;;;;;;;;;;;;;;;2097042;28;19909;-80
2024/01/17 08:36:49;;;;;;;;;;;;;;;;;;2097889;28;19916;-81
2024/01/17 08:38:09;;;;;;;;;;;;;;;;;;2093050;28;20387;-81
2024/01/17 08:39:30;;;;;;;;;;;;;;;;;;2096307;28;19909;-80
2024/01/17 08:40:51;;;;;;;;;;;;;;;;;;2097253;28;19908;-81
2024/01/17 08:42:12;;;;;;;;;;;;;;;;;;2093145;28;19924;-81
2024/01/17 08:43:33;;;;;;;;;;;;;;;;;;2091773;28;19958;-82
2024/01/17 08:44:54;;;;;;;;;;;;;;;;;;2095902;28;19909;-81
2024/01/17 08:46:15;;;;;;;;;;;;;;;;;;2097036;28;19960;-81
2024/01/17 08:47:35;;;;;;;;;;;;;;;;;;2092700;28;19921;-81
2024/01/17 08:48:56;;;;;;;;;;;;;;;;;;2089990;28;19909;-81
2024/01/17 08:50:17;;;;;;;;;;;;;;;;;;2096154;28;20280;-81
2024/01/17 08:51:38;;;;;;;;;;;;;;;;;;2091663;28;19908;-81
2024/01/17 08:52:58;;;;;;;;;;;;;;;;;;2097212;28;19916;-80
2024/01/17 08:54:19;;;;;;;;;;;;;;;;;;2095758;28;20388;-82
2024/01/17 08:55:40;;;;;;;;;;;;;;;;;;2095905;28;19909;-81
2024/01/17 08:57:01;;;;;;;;;;;;;;;;;;2090729;28;19916;-82
2024/01/17 08:58:21;;;;;;;;;;;;;;;;;;2100205;28;20314;-80
2024/01/17 08:59:42;;;;;;;;;;;;;;;;;;2091137;28;19912;-81
2024/01/17 09:01:03;;;;;;;;;;;;;;;;;;2090362;28;19908;-80
2024/01/17 09:02:23;;;;;;;;;;;;;;;;;;2096519;28;20292;-81
2024/01/17 09:03:44;;;;;;;;;;;;;;;;;;2089509;28;19909;-80
2024/01/17 09:05:05;;;;;;;;;;;;;;;;;;2091306;28;19908;-80
2024/01/17 09:06:25;;;;;;;;;;;;;;;;;;2093076;28;19941;-80
2024/01/17 09:07:48;;;;;;;;;;;;;;;;;;2095755;28;19912;-81
2024/01/17 09:09:11;;;;;;;;;;;;;;;;;;2091928;28;19954;-81
2024/01/17 09:10:32;;;;;;;;;;;;;;;;;;2098203;28;19912;-81
2024/01/17 09:11:56;;;;;;;;;;;;;;;;;;2088208;28;20384;-81